createdAt,value
2023-05-06T00:01:40.549Z,12.61
2023-05-06T00:04:07.512Z,12.57
2023-05-06T00:06:38.545Z,12.55
2023-05-06T00:09:05.315Z,12.48
2023-05-06T00:11:35.186Z,12.47
2023-05-06T00:14:09.996Z,12.51
2023-05-06T00:16:36.855Z,12.48
2023-05-06T00:19:04.256Z,12.38
2023-05-06T00:21:38.687Z,12.35
2023-05-06T00:24:08.627Z,12.28
2023-05-06T00:26:36.809Z,12.27
2023-05-06T00:29:04.096Z,12.22
2023-05-06T00:31:30.809Z,12.25
2023-05-06T00:33:57.672Z,12.21
2023-05-06T00:36:24.310Z,12.24
2023-05-06T00:38:51.045Z,12.24
2023-05-06T00:41:17.914Z,12.25
2023-05-06T00:43:44.623Z,12.21
2023-05-06T00:46:11.791Z,12.13
2023-05-06T00:48:38.835Z,12.08
2023-05-06T00:51:05.943Z,12.11
2023-05-06T00:53:33.375Z,12.16
2023-05-06T00:56:00.126Z,12.18
2023-05-06T00:58:28.188Z,12.11
2023-05-06T01:00:55.518Z,12.14
2023-05-06T01:03:23.012Z,12.08
2023-05-06T01:06:10.020Z,11.90
2023-05-06T01:08:52.362Z,11.80
2023-05-06T01:11:45.283Z,11.82
2023-05-06T01:14:30.957Z,11.79
2023-05-06T01:17:04.999Z,11.79
2023-05-06T01:19:43.276Z,11.71
2023-05-06T01:22:11.759Z,11.73
2023-05-06T01:24:45.289Z,11.73
2023-05-06T01:27:14.103Z,11.69
2023-05-06T01:29:43.299Z,11.66
2023-05-06T01:32:22.209Z,11.59
2023-05-06T01:35:24.430Z,11.63
2023-05-06T01:38:12.140Z,11.60
2023-05-06T01:40:47.905Z,11.53
2023-05-06T01:43:26.624Z,11.49
2023-05-06T01:45:54.962Z,11.42
2023-05-06T01:48:34.983Z,11.41
2023-05-06T01:51:01.927Z,11.41
2023-05-06T01:53:40.725Z,11.35
2023-05-06T01:56:07.804Z,11.35
2023-05-06T01:58:34.637Z,11.34
2023-05-06T02:01:01.518Z,11.27
2023-05-06T02:03:28.290Z,11.24
2023-05-06T02:05:55.041Z,11.22
2023-05-06T02:08:22.093Z,11.19
2023-05-06T02:10:48.773Z,11.08
2023-05-06T02:13:16.091Z,11.11
2023-05-06T02:15:42.962Z,11.08
2023-05-06T02:18:09.840Z,11.07
2023-05-06T02:20:36.528Z,11.10
2023-05-06T02:23:03.312Z,11.12
2023-05-06T02:25:30.085Z,11.11
2023-05-06T02:27:56.964Z,11.06
2023-05-06T02:30:24.042Z,11.04
2023-05-06T02:32:50.750Z,10.98
2023-05-06T02:35:17.610Z,10.92
2023-05-06T02:37:44.390Z,10.87
2023-05-06T02:40:11.816Z,10.84
2023-05-06T02:42:38.593Z,10.84
2023-05-06T02:45:05.906Z,10.85
2023-05-06T02:47:32.841Z,10.79
2023-05-06T02:49:59.930Z,10.80
2023-05-06T02:52:26.656Z,10.80
2023-05-06T02:54:53.343Z,10.66
2023-05-06T02:57:20.017Z,10.67
2023-05-06T02:59:46.688Z,10.63
2023-05-06T03:02:13.838Z,10.66
2023-05-06T03:04:40.624Z,10.60
2023-05-06T03:07:07.468Z,10.70
2023-05-06T03:09:34.139Z,10.69
2023-05-06T03:12:00.824Z,10.63
2023-05-06T03:14:27.501Z,10.60
2023-05-06T03:16:54.329Z,10.53
2023-05-06T03:19:21.202Z,10.46
2023-05-06T03:21:48.323Z,10.40
2023-05-06T03:24:15.316Z,10.42
2023-05-06T03:26:42.214Z,10.38
2023-05-06T03:29:09.229Z,10.49
2023-05-06T03:31:35.995Z,10.45
2023-05-06T03:34:02.973Z,10.34
2023-05-06T03:36:29.815Z,10.32
2023-05-06T03:38:56.471Z,10.26
2023-05-06T03:41:24.825Z,10.22
2023-05-06T03:43:52.562Z,10.28
2023-05-06T03:46:19.245Z,10.36
2023-05-06T03:48:46.175Z,10.29
2023-05-06T03:51:13.189Z,10.16
2023-05-06T03:53:39.918Z,10.22
2023-05-06T03:56:07.097Z,10.23
2023-05-06T03:58:33.853Z,10.22
2023-05-06T04:01:01.207Z,10.26
2023-05-06T04:03:28.093Z,10.05
2023-05-06T04:05:54.907Z,10.03
2023-05-06T04:08:21.783Z,10.09
2023-05-06T04:10:48.575Z,10.09
2023-05-06T04:13:15.518Z,10.08
2023-05-06T04:15:42.890Z,10.21
2023-05-06T04:18:09.587Z,10.11
2023-05-06T04:20:36.530Z,10.05
2023-05-06T04:23:03.384Z,10.02
2023-05-06T04:25:30.203Z,10.03
2023-05-06T04:27:56.942Z,9.95
2023-05-06T04:30:23.831Z,9.97
2023-05-06T04:32:50.547Z,9.91
2023-05-06T04:35:17.433Z,9.92
2023-05-06T04:37:44.631Z,10.03
2023-05-06T04:40:14.155Z,10.09
2023-05-06T04:42:40.978Z,10.23
2023-05-06T04:45:08.947Z,10.21
2023-05-06T04:47:36.304Z,10.19
2023-05-06T04:50:04.585Z,10.22
2023-05-06T04:52:31.569Z,10.22
2023-05-06T04:54:58.243Z,10.26
2023-05-06T04:57:25.199Z,10.30
2023-05-06T04:59:51.921Z,10.29
2023-05-06T05:02:18.668Z,10.28
2023-05-06T05:04:45.810Z,10.22
2023-05-06T05:07:12.505Z,10.26
2023-05-06T05:09:39.250Z,10.26
2023-05-06T05:12:06.285Z,10.28
2023-05-06T05:14:33.053Z,10.30
2023-05-06T05:16:59.856Z,10.38
2023-05-06T05:19:26.668Z,10.43
2023-05-06T05:21:53.449Z,10.50
2023-05-06T05:24:20.162Z,10.56
2023-05-06T05:26:46.916Z,10.56
2023-05-06T05:29:13.782Z,10.66
2023-05-06T05:31:40.730Z,10.67
2023-05-06T05:34:07.793Z,10.76
2023-05-06T05:36:34.949Z,10.80
2023-05-06T05:39:01.893Z,10.94
2023-05-06T05:41:28.620Z,11.00
2023-05-06T05:43:55.440Z,11.12
2023-05-06T05:46:22.188Z,11.17
2023-05-06T05:48:48.907Z,11.24
2023-05-06T05:51:15.668Z,11.34
2023-05-06T05:53:42.423Z,11.39
2023-05-06T05:56:09.216Z,11.55
2023-05-06T05:58:35.910Z,11.60
2023-05-06T06:01:02.704Z,11.76
2023-05-06T06:03:29.568Z,11.86
2023-05-06T06:05:56.649Z,11.96
2023-05-06T06:08:23.364Z,11.99
2023-05-06T06:10:50.170Z,12.20
2023-05-06T06:13:17.153Z,12.25
2023-05-06T06:15:44.102Z,12.38
2023-05-06T06:18:11.205Z,12.44
2023-05-06T06:20:38.071Z,12.44
2023-05-06T06:23:04.815Z,12.51
2023-05-06T06:25:33.383Z,12.55
2023-05-06T06:28:00.077Z,12.57
2023-05-06T06:33:41.446Z,12.85
2023-05-06T06:36:08.701Z,12.92
2023-05-06T06:38:36.683Z,12.86
2023-05-06T06:41:05.646Z,12.96
2023-05-06T06:43:32.845Z,12.95
2023-05-06T06:46:01.355Z,13.04
2023-05-06T06:48:28.063Z,13.07
2023-05-06T06:50:54.852Z,13.43
2023-05-06T06:53:21.647Z,13.48
2023-05-06T06:55:51.390Z,13.58
2023-05-06T06:58:19.160Z,13.59
2023-05-06T07:00:45.815Z,13.69
2023-05-06T07:03:16.257Z,13.68
2023-05-06T07:05:46.501Z,13.78
2023-05-06T07:08:13.167Z,13.81
2023-05-06T07:10:42.256Z,14.08
2023-05-06T07:13:09.852Z,14.17
2023-05-06T07:15:36.894Z,14.38
2023-05-06T07:18:03.962Z,14.38
2023-05-06T07:20:30.957Z,14.63
2023-05-06T07:22:58.375Z,14.73
2023-05-06T07:25:25.033Z,14.63
2023-05-06T07:27:51.871Z,14.75
2023-05-06T07:30:22.870Z,14.89
2023-05-06T07:32:50.335Z,14.92
2023-05-06T07:35:17.369Z,15.04
2023-05-06T07:37:48.668Z,15.33
2023-05-06T07:40:15.376Z,15.24
2023-05-06T07:42:43.090Z,15.43
2023-05-06T07:45:10.778Z,15.49
2023-05-06T07:47:40.682Z,15.62
2023-05-06T07:50:08.461Z,15.64
2023-05-06T07:52:35.262Z,15.56
2023-05-06T07:55:01.903Z,16.52
2023-05-06T07:57:28.622Z,17.00
2023-05-06T07:59:55.396Z,17.23
2023-05-06T08:02:22.657Z,17.71
2023-05-06T08:04:51.494Z,18.30
2023-05-06T08:07:18.650Z,18.50
2023-05-06T08:09:48.060Z,18.72
2023-05-06T08:12:16.003Z,18.99
2023-05-06T08:14:46.917Z,19.39
2023-05-06T08:17:14.077Z,18.91
2023-05-06T08:19:40.779Z,19.39
2023-05-06T08:22:09.408Z,19.24
2023-05-06T08:24:36.151Z,19.67
2023-05-06T08:27:04.526Z,19.24
2023-05-06T08:29:31.281Z,19.19
2023-05-06T08:31:57.956Z,19.51
2023-05-06T08:34:24.968Z,19.47
2023-05-06T08:36:52.355Z,20.30
2023-05-06T08:39:19.251Z,20.22
2023-05-06T08:41:52.580Z,20.14
2023-05-06T08:44:21.831Z,20.12
2023-05-06T08:46:49.561Z,20.60
2023-05-06T08:49:16.670Z,20.88
2023-05-06T08:51:45.400Z,20.72
2023-05-06T08:54:14.068Z,19.97
2023-05-06T08:56:49.490Z,20.62
2023-05-06T08:59:16.973Z,21.24
2023-05-06T09:01:44.499Z,21.32
2023-05-06T09:04:11.404Z,20.80
2023-05-06T09:06:38.051Z,20.90
2023-05-06T09:09:06.310Z,20.80
2023-05-06T09:11:36.550Z,21.45
2023-05-06T09:14:16.376Z,21.13
2023-05-06T09:16:49.882Z,21.64
2023-05-06T09:19:20.141Z,20.88
2023-05-06T09:21:49.739Z,21.35
2023-05-06T09:24:16.969Z,21.35
2023-05-06T09:26:47.049Z,22.10
2023-05-06T09:29:14.398Z,22.06
2023-05-06T09:31:45.516Z,22.30
2023-05-06T09:34:13.148Z,21.46
2023-05-06T09:36:39.932Z,22.06
2023-05-06T09:39:07.374Z,21.17
2023-05-06T09:41:34.030Z,21.32
2023-05-06T09:44:01.217Z,22.00
2023-05-06T09:46:29.232Z,22.10
2023-05-06T09:48:57.396Z,21.81
2023-05-06T09:51:24.546Z,21.54
2023-05-06T09:53:51.900Z,22.71
2023-05-06T09:56:24.713Z,22.37
2023-05-06T09:58:52.761Z,22.74
2023-05-06T10:01:32.736Z,22.53
2023-05-06T10:04:08.522Z,22.94
2023-05-06T10:06:39.545Z,23.12
2023-05-06T10:09:08.587Z,23.52
2023-05-06T10:11:36.040Z,23.18
2023-05-06T10:14:02.896Z,22.98
2023-05-06T10:16:30.085Z,23.91
2023-05-06T10:18:58.385Z,23.65
2023-05-06T10:21:28.362Z,23.67
2023-05-06T10:24:11.826Z,23.09
2023-05-06T10:26:39.682Z,22.74
2023-05-06T10:29:10.784Z,22.72
2023-05-06T10:31:57.449Z,21.82
2023-05-06T10:34:28.099Z,22.39
2023-05-06T10:36:57.935Z,23.14
2023-05-06T10:39:26.098Z,22.47
2023-05-06T10:41:52.971Z,23.08
2023-05-06T10:44:58.998Z,23.73
2023-05-06T10:47:28.840Z,23.38
2023-05-06T10:50:29.779Z,23.40
2023-05-06T10:52:59.355Z,24.01
2023-05-06T10:55:30.724Z,24.39
2023-05-06T10:58:02.121Z,24.17
2023-05-06T11:00:33.077Z,24.22
2023-05-06T11:03:06.861Z,24.75
2023-05-06T11:05:48.320Z,25.26
2023-05-06T11:08:16.629Z,25.53
2023-05-06T11:10:43.323Z,25.68
2023-05-06T11:13:30.471Z,25.40
2023-05-06T11:15:58.265Z,24.68
2023-05-06T11:18:24.970Z,25.10
2023-05-06T11:21:12.855Z,25.27
2023-05-06T11:23:55.251Z,25.63
2023-05-06T11:26:21.916Z,24.95
2023-05-06T11:28:50.609Z,25.23
2023-05-06T11:31:19.228Z,25.64
2023-05-06T11:33:48.082Z,24.45
2023-05-06T11:36:15.969Z,23.80
2023-05-06T11:38:47.436Z,23.19
2023-05-06T11:41:16.669Z,22.13
2023-05-06T11:43:51.029Z,23.15
2023-05-06T11:46:19.749Z,22.81
2023-05-06T11:48:46.967Z,22.90
2023-05-06T11:51:13.622Z,23.96
2023-05-06T11:53:40.724Z,24.58
2023-05-06T11:56:07.908Z,24.66
2023-05-06T11:58:35.897Z,24.49
2023-05-06T12:01:04.233Z,24.25
2023-05-06T12:03:32.024Z,23.09
2023-05-06T12:05:59.452Z,22.84
2023-05-06T12:08:30.464Z,24.00
2023-05-06T12:11:01.908Z,25.41
2023-05-06T12:13:31.041Z,26.18
2023-05-06T12:15:59.767Z,25.96
2023-05-06T12:18:26.930Z,26.31
2023-05-06T12:20:56.128Z,25.89
2023-05-06T12:23:22.966Z,25.84
2023-05-06T12:26:04.306Z,26.57
2023-05-06T12:28:32.729Z,27.45
2023-05-06T12:30:59.919Z,26.73
2023-05-06T12:33:26.702Z,26.74
2023-05-06T12:35:57.213Z,25.77
2023-05-06T12:38:25.396Z,24.68
2023-05-06T12:40:55.641Z,25.98
2023-05-06T12:43:33.134Z,26.02
2023-05-06T12:46:05.097Z,25.85
2023-05-06T12:48:33.373Z,25.92
2023-05-06T12:51:02.521Z,25.24
2023-05-06T12:53:33.919Z,25.74
2023-05-06T12:56:00.927Z,25.43
2023-05-06T12:58:27.696Z,25.47
2023-05-06T13:00:54.374Z,25.12
2023-05-06T13:03:21.362Z,24.75
2023-05-06T13:05:50.431Z,24.48
2023-05-06T13:08:18.591Z,24.39
2023-05-06T13:10:45.299Z,24.76
2023-05-06T13:13:11.963Z,24.35
2023-05-06T13:15:39.322Z,24.21
2023-05-06T13:18:05.987Z,23.56
2023-05-06T13:20:32.992Z,23.66
2023-05-06T13:22:59.757Z,23.35
2023-05-06T13:25:29.230Z,23.39
2023-05-06T13:27:56.744Z,23.43
2023-05-06T13:30:23.583Z,23.40
2023-05-06T13:32:51.417Z,23.03
2023-05-06T13:35:18.529Z,22.91
2023-05-06T13:37:48.501Z,23.08
2023-05-06T13:40:18.676Z,22.82
2023-05-06T13:42:45.567Z,22.48
2023-05-06T13:45:12.758Z,22.60
2023-05-06T13:47:39.584Z,22.57
2023-05-06T13:50:11.450Z,22.57
2023-05-06T13:52:38.424Z,22.44
2023-05-06T13:55:05.940Z,22.63
2023-05-06T13:57:32.745Z,22.70
2023-05-06T13:59:59.549Z,22.77
2023-05-06T14:02:27.048Z,22.61
2023-05-06T14:04:54.006Z,22.53
2023-05-06T14:07:20.894Z,22.39
2023-05-06T14:09:49.040Z,22.10
2023-05-06T14:12:16.384Z,21.95
2023-05-06T14:14:43.348Z,21.37
2023-05-06T14:17:12.573Z,20.97
2023-05-06T14:19:39.189Z,21.04
2023-05-06T14:22:08.727Z,19.77
2023-05-06T14:27:29.322Z,17.62
2023-05-06T14:29:59.407Z,17.27
2023-05-06T14:32:33.841Z,17.07
2023-05-06T14:35:11.954Z,17.02
2023-05-06T14:37:39.228Z,16.94
2023-05-06T14:40:08.307Z,16.93
2023-05-06T14:42:55.746Z,16.94
2023-05-06T14:45:31.423Z,16.56
2023-05-06T14:56:39.546Z,16.00
2023-05-06T18:09:27.478Z,17.03
2023-05-06T18:12:00.037Z,16.92
2023-05-06T18:14:33.606Z,17.00
2023-05-06T18:17:00.496Z,16.94
2023-05-06T18:19:27.860Z,16.83
2023-05-06T18:22:31.709Z,17.06
2023-05-06T18:25:28.635Z,16.84
2023-05-06T18:27:54.769Z,16.92
2023-05-06T18:30:28.034Z,16.96
2023-05-06T18:32:56.665Z,16.94
2023-05-06T18:35:24.021Z,16.93
2023-05-06T18:37:51.125Z,16.92
2023-05-06T18:40:21.657Z,16.80
2023-05-06T18:42:52.913Z,16.75
2023-05-06T18:45:19.678Z,16.73
2023-05-06T18:47:46.545Z,16.76
2023-05-06T18:50:13.442Z,16.73
2023-05-06T18:52:41.259Z,16.49
2023-05-06T18:55:08.262Z,16.46
2023-05-06T18:57:36.065Z,16.43
2023-05-06T19:00:02.689Z,16.41
2023-05-06T19:10:34.292Z,16.52
2023-05-06T19:13:02.990Z,16.48
2023-05-06T19:15:33.117Z,16.46
2023-05-06T19:18:00.157Z,16.42
2023-05-06T19:20:27.003Z,16.35
2023-05-06T19:22:53.704Z,16.28
2023-05-06T19:25:20.953Z,16.29
2023-05-06T19:27:47.627Z,16.35
2023-05-06T19:30:14.490Z,16.48
2023-05-06T19:32:44.574Z,16.34
2023-05-06T19:35:11.806Z,16.29
2023-05-06T19:37:38.728Z,16.29
2023-05-06T19:40:06.610Z,16.29
2023-05-06T19:42:34.728Z,16.29
2023-05-06T19:45:07.577Z,16.25
2023-05-06T19:47:34.472Z,16.29
2023-05-06T19:50:02.512Z,16.24
2023-05-06T19:52:31.464Z,16.20
2023-05-06T19:54:59.489Z,16.21
2023-05-06T19:57:31.017Z,16.15
2023-05-06T19:59:57.895Z,16.04
2023-05-06T20:02:31.888Z,16.05
2023-05-06T20:05:00.687Z,16.14
2023-05-06T20:07:27.805Z,16.17
2023-05-06T20:09:56.221Z,16.07
2023-05-06T20:12:23.874Z,16.15
2023-05-06T20:14:50.821Z,16.11
2023-05-06T20:17:17.588Z,16.11
2023-05-06T20:19:45.582Z,16.13
2023-05-06T20:22:12.821Z,16.11
2023-05-06T20:24:42.050Z,16.04
2023-05-06T20:27:09.101Z,16.11
2023-05-06T20:29:36.108Z,16.01
2023-05-06T20:32:03.154Z,16.03
2023-05-06T20:34:31.752Z,15.91
2023-05-06T20:36:58.538Z,15.91
2023-05-06T20:39:26.317Z,15.89
2023-05-06T20:41:57.388Z,15.81
2023-05-06T20:44:25.734Z,15.76
2023-05-06T20:46:52.867Z,15.78
2023-05-06T20:49:21.635Z,15.84
2023-05-06T20:51:49.569Z,15.84
2023-05-06T20:54:18.448Z,15.81
2023-05-06T20:56:45.687Z,15.84
2023-05-06T20:59:12.412Z,15.77
2023-05-06T21:01:44.681Z,15.84
2023-05-06T21:04:11.875Z,15.80
2023-05-06T21:06:41.318Z,15.81
2023-05-06T21:09:08.029Z,15.78
2023-05-06T21:11:34.729Z,15.84
2023-05-06T21:14:02.430Z,15.69
2023-05-06T21:16:30.093Z,15.77
2023-05-06T21:18:57.324Z,15.67
2023-05-06T21:21:25.979Z,15.70
2023-05-06T21:23:52.785Z,15.56
2023-05-06T21:26:21.670Z,15.43
2023-05-06T21:28:52.091Z,15.45
2023-05-06T21:31:23.413Z,15.33
2023-05-06T21:33:58.197Z,15.31
2023-05-06T21:36:25.520Z,15.26
2023-05-06T21:39:03.827Z,15.24
2023-05-06T21:41:31.232Z,15.32
2023-05-06T21:43:59.314Z,15.35
2023-05-06T21:46:25.953Z,15.36
2023-05-06T21:48:52.662Z,15.29
2023-05-06T21:51:19.330Z,15.29
2023-05-06T21:53:50.297Z,15.22
2023-05-06T21:56:19.408Z,15.14
2023-05-06T21:58:46.106Z,15.06
2023-05-06T22:01:13.794Z,15.08
2023-05-06T22:03:41.790Z,15.11
2023-05-06T22:06:10.526Z,15.14
2023-05-06T22:08:37.740Z,15.18
2023-05-06T22:11:04.765Z,15.09
2023-05-06T22:13:34.305Z,14.98
2023-05-06T22:16:01.653Z,15.02
2023-05-06T22:18:30.435Z,15.04
2023-05-06T22:20:58.032Z,14.92
2023-05-06T22:23:25.931Z,14.94
2023-05-06T22:25:52.840Z,15.02
2023-05-06T22:28:20.280Z,15.11
2023-05-06T22:30:46.935Z,15.06
2023-05-06T22:33:17.907Z,15.09
2023-05-06T22:35:46.457Z,15.15
2023-05-06T22:38:14.546Z,15.02
2023-05-06T22:40:42.701Z,15.15
2023-05-06T22:43:09.589Z,15.11
2023-05-06T22:45:38.112Z,15.09
2023-05-06T22:48:08.084Z,15.08
2023-05-06T22:50:41.308Z,15.09
2023-05-06T22:53:15.357Z,15.02
2023-05-06T22:55:42.694Z,15.02
2023-05-06T22:58:09.802Z,15.09
2023-05-06T23:00:37.721Z,15.12
2023-05-06T23:03:05.375Z,15.06
2023-05-06T23:05:34.929Z,15.22
2023-05-06T23:08:01.828Z,15.22
2023-05-06T23:10:29.704Z,15.19
2023-05-06T23:12:59.738Z,15.19
2023-05-06T23:15:27.040Z,15.26
2023-05-06T23:17:53.745Z,15.22
2023-05-06T23:20:20.473Z,15.21
2023-05-06T23:22:51.171Z,15.15
2023-05-06T23:25:18.227Z,15.06
2023-05-06T23:27:45.522Z,15.02
2023-05-06T23:30:12.728Z,14.96
2023-05-06T23:32:40.314Z,15.06
2023-05-06T23:35:07.958Z,14.96
2023-05-06T23:37:34.957Z,14.94
2023-05-06T23:40:01.651Z,15.02
2023-05-06T23:42:28.380Z,14.94
2023-05-06T23:44:55.386Z,14.89
2023-05-06T23:47:22.075Z,14.94
2023-05-06T23:49:48.744Z,14.91
2023-05-06T23:52:15.419Z,14.88
2023-05-06T23:54:42.427Z,14.80
